sensor_id;sensor_type;location;lat;lon;timestamp;P1;durP1;ratioP1;P2;durP2;ratioP2
69750;SDS011;57335;52.288;6.056;2023-02-28T00:00:34;9.27;;;3.20;;
69750;SDS011;57335;52.288;6.056;2023-02-28T00:03:01;8.77;;;3.53;;
69750;SDS011;57335;52.288;6.056;2023-02-28T00:07:55;9.27;;;3.10;;
69750;SDS011;57335;52.288;6.056;2023-02-28T00:10:23;9.13;;;3.33;;
69750;SDS011;57335;52.288;6.056;2023-02-28T00:12:51;11.02;;;3.58;;
69750;SDS011;57335;52.288;6.056;2023-02-28T00:15:18;8.20;;;3.35;;
69750;SDS011;57335;52.288;6.056;2023-02-28T00:17:45;8.60;;;3.25;;
69750;SDS011;57335;52.288;6.056;2023-02-28T00:20:12;9.20;;;3.10;;
69750;SDS011;57335;52.288;6.056;2023-02-28T00:22:40;8.13;;;3.05;;
69750;SDS011;57335;52.288;6.056;2023-02-28T00:25:10;9.15;;;3.50;;
69750;SDS011;57335;52.288;6.056;2023-02-28T00:27:38;9.60;;;3.63;;
69750;SDS011;57335;52.288;6.056;2023-02-28T00:30:06;8.45;;;3.15;;
69750;SDS011;57335;52.288;6.056;2023-02-28T00:32:35;11.93;;;3.80;;
69750;SDS011;57335;52.288;6.056;2023-02-28T00:35:03;10.43;;;3.28;;
69750;SDS011;57335;52.288;6.056;2023-02-28T00:37:30;8.18;;;3.40;;
69750;SDS011;57335;52.288;6.056;2023-02-28T00:39:57;9.15;;;3.28;;
69750;SDS011;57335;52.288;6.056;2023-02-28T00:42:23;7.80;;;3.10;;
69750;SDS011;57335;52.288;6.056;2023-02-28T00:44:51;8.32;;;2.92;;
69750;SDS011;57335;52.288;6.056;2023-02-28T00:47:17;9.43;;;3.08;;
69750;SDS011;57335;52.288;6.056;2023-02-28T00:49:43;10.25;;;2.70;;
69750;SDS011;57335;52.288;6.056;2023-02-28T00:52:10;7.85;;;2.75;;
69750;SDS011;57335;52.288;6.056;2023-02-28T00:54:36;8.60;;;2.72;;
69750;SDS011;57335;52.288;6.056;2023-02-28T00:57:03;6.78;;;2.55;;
69750;SDS011;57335;52.288;6.056;2023-02-28T00:59:29;8.52;;;3.25;;
69750;SDS011;57335;52.288;6.056;2023-02-28T01:01:55;8.40;;;3.33;;
69750;SDS011;57335;52.288;6.056;2023-02-28T01:06:48;9.38;;;2.90;;
69750;SDS011;57335;52.288;6.056;2023-02-28T01:09:14;7.97;;;3.78;;
69750;SDS011;57335;52.288;6.056;2023-02-28T01:11:41;10.45;;;3.45;;
69750;SDS011;57335;52.288;6.056;2023-02-28T01:14:08;7.65;;;3.40;;
69750;SDS011;57335;52.288;6.056;2023-02-28T01:16:34;10.98;;;3.97;;
69750;SDS011;57335;52.288;6.056;2023-02-28T01:19:01;10.05;;;3.17;;
69750;SDS011;57335;52.288;6.056;2023-02-28T01:21:27;10.55;;;3.20;;
69750;SDS011;57335;52.288;6.056;2023-02-28T01:23:55;9.45;;;3.25;;
69750;SDS011;57335;52.288;6.056;2023-02-28T01:26:23;8.68;;;3.03;;
69750;SDS011;57335;52.288;6.056;2023-02-28T01:28:50;8.65;;;3.03;;
69750;SDS011;57335;52.288;6.056;2023-02-28T01:31:18;8.38;;;2.97;;
69750;SDS011;57335;52.288;6.056;2023-02-28T01:33:46;8.82;;;2.88;;
69750;SDS011;57335;52.288;6.056;2023-02-28T01:36:14;11.07;;;3.20;;
69750;SDS011;57335;52.288;6.056;2023-02-28T01:38:42;9.15;;;3.20;;
69750;SDS011;57335;52.288;6.056;2023-02-28T01:41:11;9.00;;;3.30;;
69750;SDS011;57335;52.288;6.056;2023-02-28T01:46:09;9.65;;;3.13;;
69750;SDS011;57335;52.288;6.056;2023-02-28T01:48:36;9.95;;;3.45;;
69750;SDS011;57335;52.288;6.056;2023-02-28T01:51:09;8.43;;;3.08;;
69750;SDS011;57335;52.288;6.056;2023-02-28T01:56:10;7.85;;;3.08;;
69750;SDS011;57335;52.288;6.056;2023-02-28T01:58:39;8.45;;;3.00;;
69750;SDS011;57335;52.288;6.056;2023-02-28T02:01:05;9.75;;;3.50;;
69750;SDS011;57335;52.288;6.056;2023-02-28T02:03:32;7.10;;;2.95;;
69750;SDS011;57335;52.288;6.056;2023-02-28T02:05:58;7.97;;;3.08;;
69750;SDS011;57335;52.288;6.056;2023-02-28T02:08:25;9.25;;;3.33;;
69750;SDS011;57335;52.288;6.056;2023-02-28T02:10:54;8.57;;;3.47;;
69750;SDS011;57335;52.288;6.056;2023-02-28T02:18:47;8.60;;;3.22;;
69750;SDS011;57335;52.288;6.056;2023-02-28T02:21:24;9.00;;;3.35;;
69750;SDS011;57335;52.288;6.056;2023-02-28T02:36:27;8.82;;;3.70;;
69750;SDS011;57335;52.288;6.056;2023-02-28T02:39:04;11.15;;;3.78;;
69750;SDS011;57335;52.288;6.056;2023-02-28T02:41:40;8.70;;;3.65;;
69750;SDS011;57335;52.288;6.056;2023-02-28T02:44:20;9.23;;;2.90;;
69750;SDS011;57335;52.288;6.056;2023-02-28T02:46:51;9.48;;;3.45;;
69750;SDS011;57335;52.288;6.056;2023-02-28T02:49:22;9.18;;;3.20;;
69750;SDS011;57335;52.288;6.056;2023-02-28T02:51:53;8.48;;;3.30;;
69750;SDS011;57335;52.288;6.056;2023-02-28T02:54:22;8.88;;;3.53;;
69750;SDS011;57335;52.288;6.056;2023-02-28T02:56:53;9.45;;;3.50;;
69750;SDS011;57335;52.288;6.056;2023-02-28T02:59:20;9.15;;;3.60;;
69750;SDS011;57335;52.288;6.056;2023-02-28T03:01:49;9.00;;;3.38;;
69750;SDS011;57335;52.288;6.056;2023-02-28T03:04:20;9.57;;;3.40;;
69750;SDS011;57335;52.288;6.056;2023-02-28T03:06:50;9.38;;;3.60;;
69750;SDS011;57335;52.288;6.056;2023-02-28T03:09:17;9.77;;;3.88;;
69750;SDS011;57335;52.288;6.056;2023-02-28T03:11:44;8.38;;;3.53;;
69750;SDS011;57335;52.288;6.056;2023-02-28T03:19:38;9.02;;;2.88;;
69750;SDS011;57335;52.288;6.056;2023-02-28T03:25:12;11.52;;;4.28;;
69750;SDS011;57335;52.288;6.056;2023-02-28T03:30:45;12.38;;;4.50;;
69750;SDS011;57335;52.288;6.056;2023-02-28T03:33:34;9.23;;;3.78;;
69750;SDS011;57335;52.288;6.056;2023-02-28T03:36:09;8.55;;;3.42;;
69750;SDS011;57335;52.288;6.056;2023-02-28T03:38:52;8.95;;;3.83;;
69750;SDS011;57335;52.288;6.056;2023-02-28T03:41:31;11.48;;;3.90;;
69750;SDS011;57335;52.288;6.056;2023-02-28T03:44:07;10.88;;;3.67;;
69750;SDS011;57335;52.288;6.056;2023-02-28T03:46:38;9.65;;;3.92;;
69750;SDS011;57335;52.288;6.056;2023-02-28T03:51:46;8.48;;;3.22;;
69750;SDS011;57335;52.288;6.056;2023-02-28T03:54:16;7.65;;;3.45;;
69750;SDS011;57335;52.288;6.056;2023-02-28T03:56:55;9.40;;;3.38;;
69750;SDS011;57335;52.288;6.056;2023-02-28T03:59:29;9.05;;;3.60;;
69750;SDS011;57335;52.288;6.056;2023-02-28T04:02:00;8.88;;;3.55;;
69750;SDS011;57335;52.288;6.056;2023-02-28T04:04:27;9.98;;;3.88;;
69750;SDS011;57335;52.288;6.056;2023-02-28T04:07:00;8.80;;;3.72;;
69750;SDS011;57335;52.288;6.056;2023-02-28T04:09:31;8.85;;;3.47;;
69750;SDS011;57335;52.288;6.056;2023-02-28T04:11:58;8.60;;;3.55;;
69750;SDS011;57335;52.288;6.056;2023-02-28T04:16:50;9.25;;;3.70;;
69750;SDS011;57335;52.288;6.056;2023-02-28T04:19:17;10.45;;;3.83;;
69750;SDS011;57335;52.288;6.056;2023-02-28T04:21:45;8.73;;;3.63;;
69750;SDS011;57335;52.288;6.056;2023-02-28T04:24:17;8.60;;;3.38;;
69750;SDS011;57335;52.288;6.056;2023-02-28T04:26:46;8.30;;;3.25;;
69750;SDS011;57335;52.288;6.056;2023-02-28T04:29:17;8.85;;;2.97;;
69750;SDS011;57335;52.288;6.056;2023-02-28T04:31:45;9.45;;;2.80;;
69750;SDS011;57335;52.288;6.056;2023-02-28T04:36:38;8.55;;;2.88;;
69750;SDS011;57335;52.288;6.056;2023-02-28T04:39:05;8.00;;;2.83;;
69750;SDS011;57335;52.288;6.056;2023-02-28T04:41:31;7.57;;;2.63;;
69750;SDS011;57335;52.288;6.056;2023-02-28T04:43:58;8.45;;;3.17;;
69750;SDS011;57335;52.288;6.056;2023-02-28T04:48:51;8.25;;;3.15;;
69750;SDS011;57335;52.288;6.056;2023-02-28T04:51:18;10.93;;;3.63;;
69750;SDS011;57335;52.288;6.056;2023-02-28T04:53:44;7.57;;;3.10;;
69750;SDS011;57335;52.288;6.056;2023-02-28T04:56:12;8.65;;;3.22;;
69750;SDS011;57335;52.288;6.056;2023-02-28T04:58:39;7.95;;;3.35;;
69750;SDS011;57335;52.288;6.056;2023-02-28T05:01:06;9.05;;;3.15;;
69750;SDS011;57335;52.288;6.056;2023-02-28T05:03:43;9.65;;;3.00;;
69750;SDS011;57335;52.288;6.056;2023-02-28T05:06:10;9.43;;;3.22;;
69750;SDS011;57335;52.288;6.056;2023-02-28T05:08:37;10.50;;;3.47;;
69750;SDS011;57335;52.288;6.056;2023-02-28T05:11:05;10.90;;;3.75;;
69750;SDS011;57335;52.288;6.056;2023-02-28T05:13:33;9.82;;;4.10;;
69750;SDS011;57335;52.288;6.056;2023-02-28T05:15:59;9.82;;;3.55;;
69750;SDS011;57335;52.288;6.056;2023-02-28T05:18:25;7.75;;;3.40;;
69750;SDS011;57335;52.288;6.056;2023-02-28T05:20:52;9.40;;;3.30;;
69750;SDS011;57335;52.288;6.056;2023-02-28T05:23:19;9.63;;;3.40;;
69750;SDS011;57335;52.288;6.056;2023-02-28T05:25:48;8.98;;;3.35;;
69750;SDS011;57335;52.288;6.056;2023-02-28T05:30:41;7.80;;;3.40;;
69750;SDS011;57335;52.288;6.056;2023-02-28T05:33:09;7.72;;;2.97;;
69750;SDS011;57335;52.288;6.056;2023-02-28T05:35:40;9.52;;;3.47;;
69750;SDS011;57335;52.288;6.056;2023-02-28T05:38:07;8.98;;;3.67;;
69750;SDS011;57335;52.288;6.056;2023-02-28T05:40:34;9.75;;;3.72;;
69750;SDS011;57335;52.288;6.056;2023-02-28T05:43:00;9.93;;;3.60;;
69750;SDS011;57335;52.288;6.056;2023-02-28T05:47:53;8.18;;;3.17;;
69750;SDS011;57335;52.288;6.056;2023-02-28T05:50:20;7.88;;;3.70;;
69750;SDS011;57335;52.288;6.056;2023-02-28T05:52:50;9.63;;;3.40;;
69750;SDS011;57335;52.288;6.056;2023-02-28T05:55:17;9.35;;;3.60;;
69750;SDS011;57335;52.288;6.056;2023-02-28T05:57:44;7.15;;;3.10;;
69750;SDS011;57335;52.288;6.056;2023-02-28T06:00:11;8.10;;;3.35;;
69750;SDS011;57335;52.288;6.056;2023-02-28T06:02:40;8.90;;;3.20;;
69750;SDS011;57335;52.288;6.056;2023-02-28T06:05:09;9.10;;;3.35;;
69750;SDS011;57335;52.288;6.056;2023-02-28T06:07:39;8.73;;;3.78;;
69750;SDS011;57335;52.288;6.056;2023-02-28T06:10:06;6.97;;;3.00;;
69750;SDS011;57335;52.288;6.056;2023-02-28T06:12:33;8.57;;;3.45;;
69750;SDS011;57335;52.288;6.056;2023-02-28T06:14:59;8.07;;;3.17;;
69750;SDS011;57335;52.288;6.056;2023-02-28T06:17:25;9.85;;;3.35;;
69750;SDS011;57335;52.288;6.056;2023-02-28T06:19:52;8.82;;;3.35;;
69750;SDS011;57335;52.288;6.056;2023-02-28T06:22:18;8.23;;;3.47;;
69750;SDS011;57335;52.288;6.056;2023-02-28T06:24:44;9.38;;;3.60;;
69750;SDS011;57335;52.288;6.056;2023-02-28T06:27:11;9.05;;;3.25;;
69750;SDS011;57335;52.288;6.056;2023-02-28T06:29:37;9.40;;;3.83;;
69750;SDS011;57335;52.288;6.056;2023-02-28T06:32:04;9.70;;;3.63;;
69750;SDS011;57335;52.288;6.056;2023-02-28T06:36:57;13.73;;;4.05;;
69750;SDS011;57335;52.288;6.056;2023-02-28T06:39:23;10.68;;;3.63;;
69750;SDS011;57335;52.288;6.056;2023-02-28T06:41:49;8.55;;;3.38;;
69750;SDS011;57335;52.288;6.056;2023-02-28T06:44:21;10.05;;;4.03;;
69750;SDS011;57335;52.288;6.056;2023-02-28T06:46:48;7.97;;;3.53;;
69750;SDS011;57335;52.288;6.056;2023-02-28T06:49:15;10.98;;;4.00;;
69750;SDS011;57335;52.288;6.056;2023-02-28T06:51:43;12.40;;;3.95;;
69750;SDS011;57335;52.288;6.056;2023-02-28T06:54:11;7.47;;;3.42;;
69750;SDS011;57335;52.288;6.056;2023-02-28T06:56:38;9.48;;;3.60;;
69750;SDS011;57335;52.288;6.056;2023-02-28T07:01:31;9.43;;;3.67;;
69750;SDS011;57335;52.288;6.056;2023-02-28T07:03:58;7.60;;;2.97;;
69750;SDS011;57335;52.288;6.056;2023-02-28T07:06:25;9.52;;;3.38;;
69750;SDS011;57335;52.288;6.056;2023-02-28T07:08:53;7.28;;;3.13;;
69750;SDS011;57335;52.288;6.056;2023-02-28T07:11:20;10.95;;;3.35;;
69750;SDS011;57335;52.288;6.056;2023-02-28T07:13:48;8.15;;;2.97;;
69750;SDS011;57335;52.288;6.056;2023-02-28T07:16:15;9.20;;;3.22;;
69750;SDS011;57335;52.288;6.056;2023-02-28T07:18:41;8.02;;;3.15;;
69750;SDS011;57335;52.288;6.056;2023-02-28T07:21:08;7.65;;;3.20;;
69750;SDS011;57335;52.288;6.056;2023-02-28T07:23:36;7.43;;;2.88;;
69750;SDS011;57335;52.288;6.056;2023-02-28T07:26:07;7.72;;;3.17;;
69750;SDS011;57335;52.288;6.056;2023-02-28T07:28:38;6.93;;;2.80;;
69750;SDS011;57335;52.288;6.056;2023-02-28T07:33:32;7.38;;;2.92;;
69750;SDS011;57335;52.288;6.056;2023-02-28T07:36:05;8.00;;;3.35;;
69750;SDS011;57335;52.288;6.056;2023-02-28T07:38:34;10.18;;;3.63;;
69750;SDS011;57335;52.288;6.056;2023-02-28T07:41:02;7.88;;;3.05;;
69750;SDS011;57335;52.288;6.056;2023-02-28T07:43:29;8.23;;;3.05;;
69750;SDS011;57335;52.288;6.056;2023-02-28T07:45:55;6.78;;;2.13;;
69750;SDS011;57335;52.288;6.056;2023-02-28T07:48:26;7.53;;;2.97;;
69750;SDS011;57335;52.288;6.056;2023-02-28T07:50:56;8.63;;;3.40;;
69750;SDS011;57335;52.288;6.056;2023-02-28T07:53:23;7.75;;;3.30;;
69750;SDS011;57335;52.288;6.056;2023-02-28T07:58:16;7.60;;;3.17;;
69750;SDS011;57335;52.288;6.056;2023-02-28T08:03:11;7.80;;;2.75;;
69750;SDS011;57335;52.288;6.056;2023-02-28T08:05:39;8.57;;;3.15;;
69750;SDS011;57335;52.288;6.056;2023-02-28T08:08:06;8.43;;;3.15;;
69750;SDS011;57335;52.288;6.056;2023-02-28T08:10:33;7.10;;;2.90;;
69750;SDS011;57335;52.288;6.056;2023-02-28T08:13:00;8.57;;;2.90;;
69750;SDS011;57335;52.288;6.056;2023-02-28T08:15:26;8.48;;;3.30;;
69750;SDS011;57335;52.288;6.056;2023-02-28T08:20:19;7.85;;;3.30;;
69750;SDS011;57335;52.288;6.056;2023-02-28T08:25:12;8.35;;;3.35;;
69750;SDS011;57335;52.288;6.056;2023-02-28T08:30:04;7.47;;;2.80;;
69750;SDS011;57335;52.288;6.056;2023-02-28T08:32:32;6.20;;;2.30;;
69750;SDS011;57335;52.288;6.056;2023-02-28T08:34:59;5.38;;;1.90;;
69750;SDS011;57335;52.288;6.056;2023-02-28T08:37:26;4.88;;;2.08;;
69750;SDS011;57335;52.288;6.056;2023-02-28T08:39:52;5.53;;;1.70;;
69750;SDS011;57335;52.288;6.056;2023-02-28T08:42:21;5.32;;;1.92;;
69750;SDS011;57335;52.288;6.056;2023-02-28T08:44:48;5.85;;;1.98;;
69750;SDS011;57335;52.288;6.056;2023-02-28T08:47:14;3.38;;;1.60;;
69750;SDS011;57335;52.288;6.056;2023-02-28T08:49:41;5.15;;;1.88;;
69750;SDS011;57335;52.288;6.056;2023-02-28T08:52:08;5.13;;;1.60;;
69750;SDS011;57335;52.288;6.056;2023-02-28T08:54:34;5.20;;;1.80;;
69750;SDS011;57335;52.288;6.056;2023-02-28T08:57:02;4.53;;;1.75;;
69750;SDS011;57335;52.288;6.056;2023-02-28T08:59:29;3.63;;;1.50;;
69750;SDS011;57335;52.288;6.056;2023-02-28T09:01:55;4.32;;;1.80;;
69750;SDS011;57335;52.288;6.056;2023-02-28T09:04:22;4.65;;;1.70;;
69750;SDS011;57335;52.288;6.056;2023-02-28T09:06:50;3.95;;;1.42;;
69750;SDS011;57335;52.288;6.056;2023-02-28T09:09:17;5.20;;;1.70;;
69750;SDS011;57335;52.288;6.056;2023-02-28T09:11:43;4.50;;;1.60;;
69750;SDS011;57335;52.288;6.056;2023-02-28T09:14:09;5.80;;;1.70;;
69750;SDS011;57335;52.288;6.056;2023-02-28T09:16:36;4.57;;;1.60;;
69750;SDS011;57335;52.288;6.056;2023-02-28T09:19:03;4.07;;;1.58;;
69750;SDS011;57335;52.288;6.056;2023-02-28T09:21:30;4.13;;;1.70;;
69750;SDS011;57335;52.288;6.056;2023-02-28T09:23:56;3.88;;;1.40;;
69750;SDS011;57335;52.288;6.056;2023-02-28T09:26:24;2.80;;;1.50;;
69750;SDS011;57335;52.288;6.056;2023-02-28T09:29:03;4.43;;;1.77;;
69750;SDS011;57335;52.288;6.056;2023-02-28T09:31:30;4.75;;;1.75;;
69750;SDS011;57335;52.288;6.056;2023-02-28T09:33:57;4.15;;;1.58;;
69750;SDS011;57335;52.288;6.056;2023-02-28T09:36:25;2.67;;;1.25;;
69750;SDS011;57335;52.288;6.056;2023-02-28T09:39:09;3.45;;;1.40;;
69750;SDS011;57335;52.288;6.056;2023-02-28T09:41:39;4.40;;;1.50;;
69750;SDS011;57335;52.288;6.056;2023-02-28T09:44:09;5.03;;;1.30;;
69750;SDS011;57335;52.288;6.056;2023-02-28T09:46:44;3.63;;;1.38;;
69750;SDS011;57335;52.288;6.056;2023-02-28T09:49:16;2.53;;;1.20;;
69750;SDS011;57335;52.288;6.056;2023-02-28T09:51:56;4.93;;;1.30;;
69750;SDS011;57335;52.288;6.056;2023-02-28T09:54:27;4.00;;;1.58;;
69750;SDS011;57335;52.288;6.056;2023-02-28T09:56:58;3.92;;;1.55;;
69750;SDS011;57335;52.288;6.056;2023-02-28T10:05:16;4.28;;;1.48;;
69750;SDS011;57335;52.288;6.056;2023-02-28T10:07:55;5.03;;;1.77;;
69750;SDS011;57335;52.288;6.056;2023-02-28T10:13:04;2.42;;;0.98;;
69750;SDS011;57335;52.288;6.056;2023-02-28T10:15:38;3.00;;;1.30;;
69750;SDS011;57335;52.288;6.056;2023-02-28T10:18:06;2.33;;;1.20;;
69750;SDS011;57335;52.288;6.056;2023-02-28T10:20:41;2.90;;;1.30;;
69750;SDS011;57335;52.288;6.056;2023-02-28T10:25:36;3.35;;;1.17;;
69750;SDS011;57335;52.288;6.056;2023-02-28T10:30:34;3.20;;;1.50;;
69750;SDS011;57335;52.288;6.056;2023-02-28T10:33:02;4.10;;;1.50;;
69750;SDS011;57335;52.288;6.056;2023-02-28T10:35:29;4.38;;;1.52;;
69750;SDS011;57335;52.288;6.056;2023-02-28T10:37:56;4.22;;;1.90;;
69750;SDS011;57335;52.288;6.056;2023-02-28T10:40:30;3.80;;;1.60;;
69750;SDS011;57335;52.288;6.056;2023-02-28T10:43:02;3.47;;;1.42;;
69750;SDS011;57335;52.288;6.056;2023-02-28T10:45:32;3.15;;;1.40;;
69750;SDS011;57335;52.288;6.056;2023-02-28T10:50:52;4.40;;;1.55;;
69750;SDS011;57335;52.288;6.056;2023-02-28T10:56:01;3.80;;;1.40;;
69750;SDS011;57335;52.288;6.056;2023-02-28T10:58:44;5.30;;;1.75;;
69750;SDS011;57335;52.288;6.056;2023-02-28T11:01:42;4.22;;;1.70;;
69750;SDS011;57335;52.288;6.056;2023-02-28T11:06:46;3.90;;;1.30;;
69750;SDS011;57335;52.288;6.056;2023-02-28T11:09:16;3.80;;;1.55;;
69750;SDS011;57335;52.288;6.056;2023-02-28T11:11:49;2.42;;;1.00;;
69750;SDS011;57335;52.288;6.056;2023-02-28T11:14:20;3.05;;;1.42;;
69750;SDS011;57335;52.288;6.056;2023-02-28T11:16:50;3.47;;;1.30;;
69750;SDS011;57335;52.288;6.056;2023-02-28T11:19:33;2.03;;;1.10;;
69750;SDS011;57335;52.288;6.056;2023-02-28T11:22:05;2.92;;;1.30;;
69750;SDS011;57335;52.288;6.056;2023-02-28T11:24:37;3.97;;;1.50;;
69750;SDS011;57335;52.288;6.056;2023-02-28T11:29:57;4.40;;;1.77;;
69750;SDS011;57335;52.288;6.056;2023-02-28T11:32:26;3.40;;;1.30;;
69750;SDS011;57335;52.288;6.056;2023-02-28T11:35:04;6.00;;;1.67;;
69750;SDS011;57335;52.288;6.056;2023-02-28T11:37:43;3.15;;;1.35;;
69750;SDS011;57335;52.288;6.056;2023-02-28T11:40:36;4.13;;;1.50;;
69750;SDS011;57335;52.288;6.056;2023-02-28T11:51:59;3.22;;;1.20;;
69750;SDS011;57335;52.288;6.056;2023-02-28T11:54:48;2.08;;;1.00;;
69750;SDS011;57335;52.288;6.056;2023-02-28T11:57:27;2.00;;;0.93;;
69750;SDS011;57335;52.288;6.056;2023-02-28T12:05:46;5.68;;;1.80;;
69750;SDS011;57335;52.288;6.056;2023-02-28T12:13:52;3.28;;;1.15;;
69750;SDS011;57335;52.288;6.056;2023-02-28T12:19:07;5.10;;;1.73;;
69750;SDS011;57335;52.288;6.056;2023-02-28T12:22:02;1.90;;;0.82;;
69750;SDS011;57335;52.288;6.056;2023-02-28T12:24:45;4.38;;;1.30;;
69750;SDS011;57335;52.288;6.056;2023-02-28T12:27:25;4.32;;;1.55;;
69750;SDS011;57335;52.288;6.056;2023-02-28T12:30:02;4.22;;;1.60;;
69750;SDS011;57335;52.288;6.056;2023-02-28T12:32:34;3.70;;;1.50;;
69750;SDS011;57335;52.288;6.056;2023-02-28T12:37:57;2.58;;;1.27;;
69750;SDS011;57335;52.288;6.056;2023-02-28T12:40:39;4.38;;;1.40;;
69750;SDS011;57335;52.288;6.056;2023-02-28T12:43:10;3.20;;;1.20;;
69750;SDS011;57335;52.288;6.056;2023-02-28T12:46:29;3.47;;;1.45;;
69750;SDS011;57335;52.288;6.056;2023-02-28T12:48:40;3.72;;;1.30;;
69750;SDS011;57335;52.288;6.056;2023-02-28T12:51:09;5.28;;;1.60;;
69750;SDS011;57335;52.288;6.056;2023-02-28T12:53:45;4.18;;;1.52;;
69750;SDS011;57335;52.288;6.056;2023-02-28T12:56:29;4.88;;;1.63;;
69750;SDS011;57335;52.288;6.056;2023-02-28T12:59:27;3.70;;;1.40;;
69750;SDS011;57335;52.288;6.056;2023-02-28T13:02:17;3.15;;;1.60;;
69750;SDS011;57335;52.288;6.056;2023-02-28T13:10:16;3.05;;;1.27;;
69750;SDS011;57335;52.288;6.056;2023-02-28T13:12:47;3.90;;;1.65;;
69750;SDS011;57335;52.288;6.056;2023-02-28T13:15:27;4.63;;;1.55;;
69750;SDS011;57335;52.288;6.056;2023-02-28T13:17:55;4.65;;;1.80;;
69750;SDS011;57335;52.288;6.056;2023-02-28T13:20:27;2.97;;;1.38;;
69750;SDS011;57335;52.288;6.056;2023-02-28T13:22:59;4.68;;;1.63;;
69750;SDS011;57335;52.288;6.056;2023-02-28T13:28:12;3.30;;;1.27;;
69750;SDS011;57335;52.288;6.056;2023-02-28T13:33:22;3.65;;;1.33;;
69750;SDS011;57335;52.288;6.056;2023-02-28T13:36:06;4.53;;;1.55;;
69750;SDS011;57335;52.288;6.056;2023-02-28T13:49:19;3.08;;;1.33;;
69750;SDS011;57335;52.288;6.056;2023-02-28T13:51:50;2.97;;;1.30;;
69750;SDS011;57335;52.288;6.056;2023-02-28T14:02:44;4.30;;;1.70;;
69750;SDS011;57335;52.288;6.056;2023-02-28T14:05:13;4.65;;;1.63;;
69750;SDS011;57335;52.288;6.056;2023-02-28T14:07:48;3.78;;;1.40;;
69750;SDS011;57335;52.288;6.056;2023-02-28T14:10:24;4.60;;;1.80;;
69750;SDS011;57335;52.288;6.056;2023-02-28T14:12:58;3.95;;;1.48;;
69750;SDS011;57335;52.288;6.056;2023-02-28T14:15:38;4.90;;;1.73;;
69750;SDS011;57335;52.288;6.056;2023-02-28T14:32:32;4.30;;;1.48;;
69750;SDS011;57335;52.288;6.056;2023-02-28T14:35:29;5.15;;;1.70;;
69750;SDS011;57335;52.288;6.056;2023-02-28T14:40:47;2.65;;;0.98;;
69750;SDS011;57335;52.288;6.056;2023-02-28T14:43:21;4.25;;;1.60;;
69750;SDS011;57335;52.288;6.056;2023-02-28T14:45:51;3.70;;;1.20;;
69750;SDS011;57335;52.288;6.056;2023-02-28T14:48:20;5.20;;;1.95;;
69750;SDS011;57335;52.288;6.056;2023-02-28T14:50:51;2.78;;;1.30;;
69750;SDS011;57335;52.288;6.056;2023-02-28T14:53:20;3.67;;;1.50;;
69750;SDS011;57335;52.288;6.056;2023-02-28T14:55:48;6.10;;;1.90;;
69750;SDS011;57335;52.288;6.056;2023-02-28T14:58:23;4.15;;;1.63;;
69750;SDS011;57335;52.288;6.056;2023-02-28T15:00:52;3.70;;;1.63;;
69750;SDS011;57335;52.288;6.056;2023-02-28T15:03:22;3.88;;;1.27;;
69750;SDS011;57335;52.288;6.056;2023-02-28T15:05:51;2.22;;;1.20;;
69750;SDS011;57335;52.288;6.056;2023-02-28T15:08:20;3.85;;;1.40;;
69750;SDS011;57335;52.288;6.056;2023-02-28T15:13:30;4.93;;;1.90;;
69750;SDS011;57335;52.288;6.056;2023-02-28T15:16:11;4.88;;;1.60;;
69750;SDS011;57335;52.288;6.056;2023-02-28T15:18:44;5.45;;;1.70;;
69750;SDS011;57335;52.288;6.056;2023-02-28T15:21:12;7.05;;;2.10;;
69750;SDS011;57335;52.288;6.056;2023-02-28T15:26:15;4.43;;;1.55;;
69750;SDS011;57335;52.288;6.056;2023-02-28T15:28:45;4.78;;;1.85;;
69750;SDS011;57335;52.288;6.056;2023-02-28T15:34:26;5.35;;;1.95;;
69750;SDS011;57335;52.288;6.056;2023-02-28T15:43:12;6.57;;;2.03;;
69750;SDS011;57335;52.288;6.056;2023-02-28T15:45:47;4.97;;;1.90;;
69750;SDS011;57335;52.288;6.056;2023-02-28T15:48:27;4.30;;;1.60;;
69750;SDS011;57335;52.288;6.056;2023-02-28T15:50:56;5.25;;;1.90;;
69750;SDS011;57335;52.288;6.056;2023-02-28T15:53:39;4.15;;;1.77;;
69750;SDS011;57335;52.288;6.056;2023-02-28T15:58:59;5.78;;;2.00;;
69750;SDS011;57335;52.288;6.056;2023-02-28T16:01:28;5.47;;;2.00;;
69750;SDS011;57335;52.288;6.056;2023-02-28T16:03:57;4.10;;;1.42;;
69750;SDS011;57335;52.288;6.056;2023-02-28T16:06:30;4.97;;;1.90;;
69750;SDS011;57335;52.288;6.056;2023-02-28T16:09:06;5.53;;;1.95;;
69750;SDS011;57335;52.288;6.056;2023-02-28T16:11:40;6.90;;;2.05;;
69750;SDS011;57335;52.288;6.056;2023-02-28T16:14:12;5.82;;;1.80;;
69750;SDS011;57335;52.288;6.056;2023-02-28T16:16:48;6.18;;;2.10;;
69750;SDS011;57335;52.288;6.056;2023-02-28T16:19:17;4.95;;;2.00;;
69750;SDS011;57335;52.288;6.056;2023-02-28T16:21:44;5.75;;;1.90;;
69750;SDS011;57335;52.288;6.056;2023-02-28T16:24:11;5.10;;;1.90;;
69750;SDS011;57335;52.288;6.056;2023-02-28T16:26:39;6.35;;;2.10;;
69750;SDS011;57335;52.288;6.056;2023-02-28T16:29:06;6.68;;;2.05;;
69750;SDS011;57335;52.288;6.056;2023-02-28T16:31:35;6.22;;;2.03;;
69750;SDS011;57335;52.288;6.056;2023-02-28T16:34:04;4.07;;;1.80;;
69750;SDS011;57335;52.288;6.056;2023-02-28T16:36:31;5.78;;;1.80;;
69750;SDS011;57335;52.288;6.056;2023-02-28T16:38:57;5.13;;;1.88;;
69750;SDS011;57335;52.288;6.056;2023-02-28T16:41:24;4.63;;;1.90;;
69750;SDS011;57335;52.288;6.056;2023-02-28T16:43:54;5.65;;;2.00;;
69750;SDS011;57335;52.288;6.056;2023-02-28T16:46:23;6.32;;;2.30;;
69750;SDS011;57335;52.288;6.056;2023-02-28T16:48:57;7.28;;;2.40;;
69750;SDS011;57335;52.288;6.056;2023-02-28T16:51:23;6.72;;;1.90;;
69750;SDS011;57335;52.288;6.056;2023-02-28T16:53:50;4.50;;;1.80;;
69750;SDS011;57335;52.288;6.056;2023-02-28T17:01:14;5.28;;;1.88;;
69750;SDS011;57335;52.288;6.056;2023-02-28T17:03:41;5.75;;;1.95;;
69750;SDS011;57335;52.288;6.056;2023-02-28T17:08:48;6.30;;;1.92;;
69750;SDS011;57335;52.288;6.056;2023-02-28T17:11:16;5.78;;;1.80;;
69750;SDS011;57335;52.288;6.056;2023-02-28T17:13:45;5.60;;;1.95;;
69750;SDS011;57335;52.288;6.056;2023-02-28T17:16:17;5.80;;;2.10;;
69750;SDS011;57335;52.288;6.056;2023-02-28T17:18:51;5.63;;;2.20;;
69750;SDS011;57335;52.288;6.056;2023-02-28T17:21:21;5.88;;;1.95;;
69750;SDS011;57335;52.288;6.056;2023-02-28T17:23:51;5.20;;;2.00;;
69750;SDS011;57335;52.288;6.056;2023-02-28T17:26:41;6.70;;;2.40;;
69750;SDS011;57335;52.288;6.056;2023-02-28T17:32:05;9.45;;;3.20;;
69750;SDS011;57335;52.288;6.056;2023-02-28T17:34:43;8.25;;;2.85;;
69750;SDS011;57335;52.288;6.056;2023-02-28T17:40:27;15.07;;;5.80;;
69750;SDS011;57335;52.288;6.056;2023-02-28T17:45:20;12.50;;;5.85;;
69750;SDS011;57335;52.288;6.056;2023-02-28T17:47:48;13.30;;;5.57;;
69750;SDS011;57335;52.288;6.056;2023-02-28T17:50:16;9.20;;;3.60;;
69750;SDS011;57335;52.288;6.056;2023-02-28T17:52:45;8.02;;;2.60;;
69750;SDS011;57335;52.288;6.056;2023-02-28T17:55:12;6.25;;;2.17;;
69750;SDS011;57335;52.288;6.056;2023-02-28T17:57:39;6.57;;;2.40;;
69750;SDS011;57335;52.288;6.056;2023-02-28T18:00:06;6.20;;;2.40;;
69750;SDS011;57335;52.288;6.056;2023-02-28T18:02:33;7.22;;;2.33;;
69750;SDS011;57335;52.288;6.056;2023-02-28T18:05:00;6.43;;;2.03;;
69750;SDS011;57335;52.288;6.056;2023-02-28T18:09:52;5.63;;;2.28;;
69750;SDS011;57335;52.288;6.056;2023-02-28T18:12:19;8.00;;;2.50;;
69750;SDS011;57335;52.288;6.056;2023-02-28T18:17:11;6.70;;;2.65;;
69750;SDS011;57335;52.288;6.056;2023-02-28T18:19:38;7.38;;;2.83;;
69750;SDS011;57335;52.288;6.056;2023-02-28T18:22:04;7.68;;;3.00;;
69750;SDS011;57335;52.288;6.056;2023-02-28T18:26:57;8.73;;;2.55;;
69750;SDS011;57335;52.288;6.056;2023-02-28T18:29:25;6.47;;;2.33;;
69750;SDS011;57335;52.288;6.056;2023-02-28T18:31:52;6.57;;;2.42;;
69750;SDS011;57335;52.288;6.056;2023-02-28T18:34:20;6.55;;;2.22;;